Impacts TAF Board
For situational awareness. Not to be used for flight planning purposes.
IDs:

KPBF - Pine Bluff/Grider Fl, AR, US

Issued at 0735 UTC 18 Sep 2021
Updated at 0823 UTC 18 Sep 2021
Potential Impact None Slight Moderate High
Time0753Z 18/09Z 18/10Z 18/11Z 18/12Z 18/13Z 18/14Z 18/15Z 18/16Z 18/17Z 18/18Z 18/19Z 18/20Z 18/21Z>>
Type OBS PRVL PRVL
  [TEMP]  
PRVL
  [TEMP]  
PRVL
  [TEMP]  
PRVL
  [TEMP]  
PRVL PRVL PRVL PRVL PRVL PRVL PRVL PRVL
VIS 5 4 4
  [0.5]  
4
  [0.5]  
4
  [0.5]  
4
  [0.5]  
4 >6 >6 >6 >6 6 6 6
CIG 2 5 5
  [5]  
5
  [5]  
5
  [5]  
5
  [5]  
5 20 20 20 20 35 35 35
Cover OVC OVC OVC
  [OVC]  
OVC
  [OVC]  
OVC
  [OVC]  
OVC
  [OVC]  
OVC BKN BKN BKN BKN OVC OVC OVC
FltCat LIFR IFR IFR
  [LIFR]  
IFR
  [LIFR]  
IFR
  [LIFR]  
IFR
  [LIFR]  
IFR MVFR MVFR MVFR MVFR VFR VFR VFR
WX BR BR BR
  [FG]  
BR
  [FG]  
BR
  [FG]  
BR
  [FG]  
BR VCSH VCSH VCSH VCSH SHRA BR VCTS SHRA BR VCTS SHRA BR VCTS
WDir 40 50 50
[50]
50
[50]
50
[50]
50
[50]
50 80 80 80 80 90 90 90
WSpd 3 2 2
  [2]  
2
  [2]  
2
  [2]  
2
  [2]  
2 7 7 7 7 8 8 8
WGst -- -- --
  [--]  
--
  [--]  
--
  [--]  
--
  [--]  
-- -- -- -- -- -- -- --
Raw TAF
KPBF 180735Z 1808/1906 05002KT 4SM BR BKN005 OVC010
  TEMPO 1810/1814 1/2SM FG
  FM181500 08007KT P6SM VCSH SCT010 BKN020
  FM181900 09008KT 6SM SHRA BR VCTS BKN035CB OVC050
  FM190300 11004KT P6SM OVC100


Raw METAR
KPBF 180753Z AUTO 04003KT 5SM BR OVC002 24/22 A3001 RMK AO2 SLP159 T02390222
KPBF 180653Z AUTO 06003KT 6SM BR OVC004 24/22 A3000 RMK AO2 SLP157 T02390222
KPBF 180621Z AUTO 35005KT 10SM OVC004 24/22 A3001 RMK AO2 T02390217
KPBF 180602Z AUTO 33004KT 10SM BKN005 BKN070 OVC080 24/22 A3001 RMK AO2 T02390217
KPBF 180553Z AUTO 00000KT 10SM SCT005 BKN070 OVC080 24/22 A3001 RMK AO2 SLP159 T02390217 10244 20233 402780222 58004

METAR Board
Radar Display
Forecast Discussion
For situational awareness. Not to be used for flight planning purposes.